createdAt,value
2022-09-30T00:00:56.334Z,74.77
2022-09-30T00:06:08.651Z,73.30
2022-09-30T00:11:17.627Z,55.83
2022-09-30T00:16:24.342Z,47.23
2022-09-30T00:21:29.623Z,48.90
2022-09-30T00:26:36.279Z,50.33
2022-09-30T00:31:42.594Z,47.60
2022-09-30T00:36:53.293Z,47.07
2022-09-30T00:42:01.518Z,47.43
2022-09-30T00:47:08.619Z,46.63
2022-09-30T00:52:14.683Z,47.03
2022-09-30T00:57:20.073Z,47.93
2022-09-30T01:02:25.090Z,49.00
2022-09-30T01:07:31.263Z,46.57
2022-09-30T01:12:36.987Z,46.93
2022-09-30T01:17:54.277Z,47.30
2022-09-30T01:23:02.544Z,47.47
2022-09-30T01:28:27.863Z,48.70
2022-09-30T01:33:48.202Z,45.77
2022-09-30T01:39:21.803Z,47.97
2022-09-30T01:44:44.666Z,47.73
2022-09-30T01:49:59.403Z,46.47
2022-09-30T01:55:08.287Z,59.83
2022-09-30T02:00:15.748Z,50.20
2022-09-30T02:05:44.572Z,47.57
2022-09-30T02:10:56.791Z,46.40
2022-09-30T02:16:06.422Z,46.70
2022-09-30T02:21:15.394Z,45.63
2022-09-30T02:26:27.072Z,45.48
2022-09-30T02:31:35.642Z,45.43
2022-09-30T02:36:43.943Z,45.53
2022-09-30T02:41:55.058Z,45.13
2022-09-30T02:47:37.627Z,45.13
2022-09-30T02:52:57.407Z,45.10
2022-09-30T02:58:11.860Z,45.97
2022-09-30T03:03:38.268Z,47.37
2022-09-30T03:08:44.577Z,48.75
2022-09-30T03:14:11.900Z,48.40
2022-09-30T03:19:31.825Z,47.45
2022-09-30T03:24:57.530Z,48.10
2022-09-30T03:30:09.243Z,47.13
2022-09-30T03:35:35.253Z,48.37
2022-09-30T03:40:50.117Z,48.83
2022-09-30T03:46:05.955Z,48.40
2022-09-30T03:51:13.556Z,48.45
2022-09-30T03:56:27.478Z,47.77
2022-09-30T04:01:34.049Z,50.87
2022-09-30T04:06:39.644Z,51.15
2022-09-30T04:11:44.549Z,49.60
2022-09-30T04:16:53.773Z,48.47
2022-09-30T04:21:56.944Z,49.87
2022-09-30T04:27:02.335Z,48.90
2022-09-30T04:32:08.028Z,48.83
2022-09-30T04:37:14.503Z,50.07
2022-09-30T04:42:19.848Z,48.63
2022-09-30T04:47:25.281Z,60.60
2022-09-30T04:52:31.252Z,50.17
2022-09-30T04:57:36.579Z,52.97
2022-09-30T05:02:45.504Z,50.47
2022-09-30T05:07:50.981Z,50.27
2022-09-30T05:12:57.083Z,50.67
2022-09-30T05:18:02.117Z,33.80
2022-09-30T05:23:07.802Z,45.07
2022-09-30T05:28:13.260Z,47.10
2022-09-30T05:33:18.431Z,45.53
2022-09-30T05:38:25.368Z,48.10
2022-09-30T05:43:32.257Z,55.00
2022-09-30T05:48:37.990Z,56.23
2022-09-30T05:53:43.552Z,52.13
2022-09-30T05:58:48.489Z,57.37
2022-09-30T06:03:53.734Z,66.17
2022-09-30T06:09:00.331Z,60.15
2022-09-30T06:14:06.028Z,57.23
2022-09-30T06:19:12.639Z,66.87
2022-09-30T06:24:17.762Z,58.80
2022-09-30T06:29:23.305Z,55.13
2022-09-30T06:34:28.719Z,54.75
2022-09-30T06:39:34.489Z,71.97
2022-09-30T06:44:51.171Z,64.13
2022-09-30T06:49:50.018Z,56.17
2022-09-30T06:54:58.663Z,55.63
2022-09-30T07:00:04.770Z,55.70
2022-09-30T07:05:10.112Z,55.50
2022-09-30T07:10:15.590Z,54.97
2022-09-30T07:15:24.131Z,57.23
2022-09-30T07:20:29.542Z,63.33
2022-09-30T07:25:35.135Z,62.80
2022-09-30T07:30:43.586Z,62.50
2022-09-30T07:35:53.525Z,65.43
2022-09-30T07:41:04.074Z,61.47
2022-09-30T07:46:12.191Z,54.73
2022-09-30T07:51:23.766Z,55.30
2022-09-30T07:56:45.647Z,55.43
2022-09-30T08:01:37.512Z,60.93
2022-09-30T08:06:46.179Z,61.07
2022-09-30T08:11:51.536Z,59.30
2022-09-30T08:16:58.464Z,57.87
2022-09-30T08:22:03.996Z,58.47
2022-09-30T08:27:09.610Z,59.00
2022-09-30T08:32:14.950Z,64.10
2022-09-30T08:37:20.617Z,58.40
2022-09-30T08:42:51.635Z,57.70
2022-09-30T08:48:17.913Z,55.60
2022-09-30T08:53:32.717Z,54.43
2022-09-30T08:58:41.483Z,53.23
2022-09-30T09:03:47.026Z,53.37
2022-09-30T09:09:07.858Z,55.10
2022-09-30T09:14:25.195Z,55.78
2022-09-30T09:19:33.405Z,55.50
2022-09-30T09:24:45.741Z,56.00
2022-09-30T09:30:05.212Z,56.40
2022-09-30T09:35:19.135Z,56.97
2022-09-30T09:40:45.693Z,53.80
2022-09-30T09:45:57.048Z,54.20
2022-09-30T09:51:19.631Z,55.13
2022-09-30T09:56:32.426Z,56.60
2022-09-30T10:01:39.818Z,57.57
2022-09-30T10:06:56.298Z,56.20
2022-09-30T10:12:10.315Z,57.03
2022-09-30T10:17:21.236Z,56.07
2022-09-30T10:22:31.592Z,57.20
2022-09-30T10:27:36.898Z,55.40
2022-09-30T10:32:42.450Z,56.67
2022-09-30T10:37:56.089Z,55.77
2022-09-30T10:43:01.065Z,55.33
2022-09-30T10:48:09.000Z,56.40
2022-09-30T10:53:25.730Z,57.27
2022-09-30T10:58:48.853Z,56.50
2022-09-30T11:04:12.193Z,55.30
2022-09-30T11:09:38.295Z,54.93
2022-09-30T11:14:52.957Z,54.57
2022-09-30T11:20:10.213Z,54.70
2022-09-30T11:25:27.082Z,54.00
2022-09-30T11:30:52.751Z,54.80
2022-09-30T11:36:06.810Z,55.03
2022-09-30T11:41:18.957Z,56.80
2022-09-30T11:46:36.254Z,55.00
2022-09-30T11:51:47.273Z,55.10
2022-09-30T11:56:55.513Z,54.20
2022-09-30T12:02:04.683Z,53.70
2022-09-30T12:07:25.440Z,53.70
2022-09-30T12:12:32.749Z,54.23
2022-09-30T12:17:44.276Z,53.50
2022-09-30T12:22:52.099Z,53.97
2022-09-30T12:28:45.384Z,54.43
2022-09-30T12:34:18.741Z,54.10
2022-09-30T12:39:53.945Z,53.53
2022-09-30T12:45:29.143Z,53.93
2022-09-30T12:50:38.272Z,53.40
2022-09-30T12:55:47.359Z,54.67
2022-09-30T13:01:11.537Z,53.02
2022-09-30T13:06:21.006Z,53.37
2022-09-30T13:11:48.254Z,54.42
2022-09-30T13:17:03.175Z,53.43
2022-09-30T13:22:33.525Z,54.63
2022-09-30T13:27:52.142Z,54.00
2022-09-30T13:33:01.898Z,53.40
2022-09-30T13:38:18.695Z,52.97
2022-09-30T13:43:30.127Z,52.83
2022-09-30T13:48:37.818Z,53.90
2022-09-30T13:53:46.269Z,53.57
2022-09-30T13:59:26.650Z,53.93
2022-09-30T14:04:55.839Z,53.10
2022-09-30T14:10:21.093Z,52.80
2022-09-30T14:15:48.395Z,52.93
2022-09-30T14:21:09.902Z,53.03
2022-09-30T14:26:18.600Z,52.83
2022-09-30T14:31:25.073Z,53.27
2022-09-30T14:36:31.341Z,53.77
2022-09-30T14:42:00.010Z,53.83
2022-09-30T14:47:06.710Z,53.97
2022-09-30T14:52:33.255Z,53.85
2022-09-30T14:57:39.746Z,53.30
2022-09-30T15:02:47.722Z,53.48
2022-09-30T15:07:53.950Z,53.47
2022-09-30T15:13:01.755Z,54.00
2022-09-30T15:18:32.085Z,54.45
2022-09-30T15:23:39.648Z,55.10
2022-09-30T15:28:44.936Z,60.70
2022-09-30T15:33:51.818Z,62.33
2022-09-30T15:38:57.324Z,90.97
2022-09-30T15:44:04.535Z,66.97
2022-09-30T15:49:25.133Z,61.83
2022-09-30T15:54:39.291Z,59.40
2022-09-30T16:00:04.492Z,57.57
2022-09-30T16:05:09.789Z,59.47
2022-09-30T16:10:22.495Z,57.17
2022-09-30T16:15:29.213Z,61.83
2022-09-30T16:25:41.278Z,56.35
2022-09-30T16:30:50.415Z,55.87
2022-09-30T16:35:56.076Z,55.80
2022-09-30T16:41:03.770Z,56.17
2022-09-30T16:46:11.258Z,58.33
2022-09-30T16:51:17.940Z,58.17
2022-09-30T16:56:23.864Z,56.83
2022-09-30T17:01:32.274Z,58.60
2022-09-30T17:06:40.619Z,56.73
2022-09-30T17:11:46.180Z,57.73
2022-09-30T17:16:52.787Z,62.47
2022-09-30T17:21:58.494Z,60.40
2022-09-30T17:27:04.342Z,62.17
2022-09-30T17:32:11.656Z,60.00
2022-09-30T17:37:17.482Z,61.67
2022-09-30T17:42:40.862Z,61.07
2022-09-30T17:47:48.614Z,59.77
2022-09-30T17:52:56.241Z,57.67
2022-09-30T17:58:06.116Z,58.00
2022-09-30T18:03:14.895Z,58.86
2022-09-30T18:08:22.836Z,61.02
2022-09-30T18:13:29.929Z,60.10
2022-09-30T18:23:43.700Z,60.70
2022-09-30T18:28:50.800Z,59.70
2022-09-30T18:33:59.116Z,61.57
2022-09-30T18:39:08.310Z,62.20
2022-09-30T18:44:14.282Z,60.90
2022-09-30T18:49:20.421Z,62.27
2022-09-30T18:59:33.196Z,71.47
2022-09-30T19:04:40.397Z,71.00
2022-09-30T19:09:46.984Z,90.77
2022-09-30T19:15:00.284Z,91.50
2022-09-30T19:20:07.838Z,62.90
2022-09-30T19:25:16.783Z,62.17
2022-09-30T19:30:28.078Z,83.60
2022-09-30T19:35:40.323Z,71.43
2022-09-30T19:40:43.471Z,67.40
2022-09-30T19:45:58.282Z,59.03
2022-09-30T19:51:08.765Z,63.13
2022-09-30T19:56:20.267Z,91.63
2022-09-30T20:01:27.022Z,61.83
2022-09-30T20:06:34.962Z,58.60
2022-09-30T20:11:41.359Z,84.73
2022-09-30T20:16:50.308Z,78.17
2022-09-30T20:21:56.893Z,76.93
2022-09-30T20:27:02.210Z,87.62
2022-09-30T20:32:11.499Z,79.32
2022-09-30T20:37:17.495Z,79.53
2022-09-30T20:42:23.043Z,69.67
2022-09-30T20:47:28.812Z,72.67
2022-09-30T20:52:36.747Z,63.47
2022-09-30T20:57:43.775Z,62.57
2022-09-30T21:02:52.522Z,62.43
2022-09-30T21:08:01.577Z,90.50
2022-09-30T21:13:11.385Z,66.80
2022-09-30T21:18:17.959Z,65.47
2022-09-30T21:23:23.113Z,62.17
2022-09-30T21:28:30.913Z,63.30
2022-09-30T21:33:37.272Z,61.13
2022-09-30T21:38:42.979Z,60.03
2022-09-30T21:43:49.266Z,61.23
2022-09-30T21:49:09.832Z,89.17
2022-09-30T21:54:15.334Z,60.20
2022-09-30T21:59:21.360Z,58.23
2022-09-30T22:04:26.521Z,68.35
2022-09-30T22:09:34.887Z,59.17
2022-09-30T22:19:44.442Z,59.17
2022-09-30T22:29:54.689Z,59.23
2022-09-30T22:35:18.581Z,73.93
2022-09-30T22:40:24.843Z,68.43
2022-09-30T22:45:30.682Z,65.72
2022-09-30T22:50:38.130Z,62.38
2022-09-30T22:55:43.822Z,59.23
2022-09-30T23:00:59.445Z,57.80
2022-09-30T23:06:05.862Z,77.23
2022-09-30T23:11:14.014Z,51.03
2022-09-30T23:16:18.977Z,52.53
2022-09-30T23:21:24.732Z,52.63
2022-09-30T23:26:31.480Z,51.85
2022-09-30T23:31:37.220Z,51.53
2022-09-30T23:36:42.853Z,58.87
2022-09-30T23:41:49.346Z,55.03
2022-09-30T23:47:12.412Z,57.17
2022-09-30T23:52:18.801Z,57.93
2022-09-30T23:57:24.932Z,59.75
